Columbus, Ohio
Traffic Map
Current Weather Conditions
Columbus, Ohio
Broken Clouds Light Rain
Broken Clouds
74°
Feels Like: 74°
Wind Chill: 74° Ceiling: 11000
Heat Index: 74° Visibility: 6mi
Dew Point: 73° Wind: 5mph
Humidity: 97% Direction: 210° (SSW)
Pressure: 29.97in Gusts: 0mph
Raw Report DataKCMH 171151Z 21004KT 6SM -RA BR SCT050CB BKN110 BKN170 BKN250 23/23 A2997 RMK AO2 RAB26 SLP142 CB SW-NW MOV NE P0001 60001 70001 T02330228 10250 20222 53007
Traffic Incident Summary
Active as of:
Severity:
Category:
InformationThere was an issue retrieving the traffic information for this location. Please try a different location or try again shortly.
Advertisements